Strathdon, United Kingdom
Current Conditions -  °F | °C
As of 2:20 AM on Sunday 26 Oct 2014 (Local Time) from EGPD Reporting Station
Scattered Clouds Scattered Clouds  
Wind Chill: 52°   Ceiling: Unl
Heat Index: 52°   Visibility: 6mi
Dew Point: 45°   Wind: 21mph
Humidity: 76%   Direction: 190°S
Pressure: 29.53"   Gusts: NA
Location:  57.2°N, 3.03°W
Report Text: EGPD 260120Z 19018KT 9999 FEW025 SCT031 11/07 Q1000
Loading
Personal Weather Stations






























Interactive Weather Map
Tropical Storm Tracking
New forecast layout! Learn more

10-Day Weather Forecast

Advertisements
Track Severe Weather on mobile